Ora Direzione Vento Velocita' Vento Media Vento Raffica Max. Temperatura Wind Chill Pioggia Pressione
15:08:07.0261 °(W)17.4 Kts18.2 Kts20.0 Kts15.2 °C7.3 °C0.0 mm1021.0 Hpa
14:47:01.0257 °(WSW)17.4 Kts17.4 Kts19.1 Kts15.3 °C7.7 °C0.0 mm1021.4 Hpa
14:27:34.0261 °(W)13.9 Kts14.8 Kts17.4 Kts15.3 °C8.7 °C0.0 mm1021.5 Hpa
14:06:53.0259 °(W)13.0 Kts12.2 Kts13.9 Kts15.1 °C9.4 °C0.0 mm1021.7 Hpa
13:47:22.0250 °(WSW)11.3 Kts11.3 Kts13.0 Kts15.1 °C9.8 °C0.0 mm1021.9 Hpa
13:27:55.0245 °(WSW)11.3 Kts10.4 Kts12.2 Kts14.8 °C9.8 °C0.0 mm1022.2 Hpa
13:07:32.0240 °(WSW)8.7 Kts7.8 Kts10.4 Kts15.3 °C11.7 °C0.0 mm1022.5 Hpa
12:47:08.0231 °(SW)5.2 Kts5.2 Kts7.8 Kts15.7 °C14.1 °C0.0 mm1022.5 Hpa
12:27:48.0210 °(SSW)6.1 Kts5.2 Kts7.8 Kts16.4 °C14.9 °C0.0 mm1022.9 Hpa
12:07:57.0198 °(SSW)4.3 Kts4.3 Kts7.8 Kts16.3 °C15.4 °C0.0 mm1023.1 Hpa
11:47:39.0190 °(S)3.5 Kts4.3 Kts7.8 Kts16.6 °C15.7 °C0.0 mm1023.3 Hpa
11:27:20.0184 °(S)3.5 Kts2.6 Kts7.8 Kts15.9 °C15.9 °C0.0 mm1023.4 Hpa
11:07:01.0154 °(SSE)1.7 Kts1.7 Kts7.8 Kts15.6 °C15.6 °C0.0 mm1023.2 Hpa
10:47:47.0152 °(SSE)2.6 Kts1.7 Kts7.8 Kts15.2 °C15.2 °C0.0 mm1023.4 Hpa
10:27:32.0144 °(SE)1.7 Kts1.7 Kts7.8 Kts14.4 °C14.4 °C0.0 mm1023.2 Hpa
10:07:07.0131 °(SE)2.6 Kts1.7 Kts7.8 Kts14.3 °C14.3 °C0.0 mm1023.2 Hpa
09:48:01.056 °(NE)0.9 Kts0.9 Kts7.8 Kts13.9 °C13.9 °C0.0 mm1023.2 Hpa
09:27:43.048 °(NE)0.0 Kts0.0 Kts7.8 Kts12.7 °C12.7 °C0.0 mm1023.1 Hpa
09:07:26.048 °(NE)0.0 Kts0.0 Kts7.8 Kts11.4 °C11.4 °C0.0 mm1022.9 Hpa
08:47:03.049 °(NE)4.3 Kts6.1 Kts7.8 Kts10.1 °C7.2 °C0.0 mm1022.9 Hpa